createdAt,value
2018-12-31T00:00:35.465Z,42.90
2018-12-31T00:01:35.449Z,41.10
2018-12-31T00:02:35.465Z,41.50
2018-12-31T00:03:35.236Z,41.80
2018-12-31T00:04:35.234Z,42.60
2018-12-31T00:05:35.435Z,42.00
2018-12-31T00:06:35.229Z,42.60
2018-12-31T00:07:35.435Z,41.50
2018-12-31T00:08:35.417Z,41.90
2018-12-31T00:09:35.415Z,42.40
2018-12-31T00:10:35.198Z,45.20
2018-12-31T00:11:35.400Z,43.00
2018-12-31T00:12:35.399Z,42.90
2018-12-31T00:13:35.193Z,44.20
2018-12-31T00:14:35.198Z,42.30
2018-12-31T00:15:35.186Z,44.10
2018-12-31T00:16:35.167Z,43.90
2018-12-31T00:17:35.172Z,43.00
2018-12-31T00:18:35.170Z,43.20
2018-12-31T00:19:35.364Z,44.80
2018-12-31T00:20:35.161Z,46.30
2018-12-31T00:21:35.343Z,44.90
2018-12-31T00:22:35.144Z,44.80
2018-12-31T00:23:35.337Z,44.30
2018-12-31T00:24:35.122Z,45.20
2018-12-31T00:25:35.125Z,45.50
2018-12-31T00:26:35.121Z,45.10
2018-12-31T00:27:35.121Z,45.00
2018-12-31T00:28:35.123Z,44.60
2018-12-31T00:29:35.113Z,45.20
2018-12-31T00:30:35.094Z,42.90
2018-12-31T00:31:35.096Z,43.50
2018-12-31T00:32:35.081Z,43.70
2018-12-31T00:33:35.095Z,42.20
2018-12-31T00:34:35.103Z,40.00
2018-12-31T00:35:35.082Z,38.90
2018-12-31T00:36:35.079Z,38.00
2018-12-31T00:37:35.061Z,39.60
2018-12-31T00:38:35.253Z,39.50
2018-12-31T00:39:35.259Z,39.60
2018-12-31T00:40:35.041Z,41.30
2018-12-31T00:41:35.039Z,41.00
2018-12-31T00:42:35.245Z,41.60
2018-12-31T00:43:35.029Z,41.70
2018-12-31T00:44:35.015Z,42.30
2018-12-31T00:45:35.011Z,42.30
2018-12-31T00:46:35.014Z,41.80
2018-12-31T00:47:35.000Z,40.00
2018-12-31T00:48:34.999Z,41.20
2018-12-31T00:49:34.998Z,40.50
2018-12-31T00:50:35.194Z,41.00
2018-12-31T00:51:35.048Z,40.40
2018-12-31T00:52:35.178Z,40.30
2018-12-31T00:53:34.969Z,37.70
2018-12-31T00:54:35.166Z,36.60
2018-12-31T00:55:35.090Z,35.40
2018-12-31T00:56:34.956Z,35.60
2018-12-31T00:57:34.954Z,35.50
2018-12-31T00:58:34.946Z,34.80
2018-12-31T00:59:34.946Z,36.30
2018-12-31T01:00:35.137Z,34.00
2018-12-31T01:01:34.923Z,34.20
2018-12-31T01:02:34.928Z,33.40
2018-12-31T01:03:34.912Z,33.80
2018-12-31T01:04:34.914Z,33.70
2018-12-31T01:05:34.915Z,32.60
2018-12-31T01:06:34.900Z,33.20
2018-12-31T01:07:34.895Z,33.40
2018-12-31T01:08:34.904Z,32.20
2018-12-31T01:09:34.893Z,31.40
2018-12-31T01:10:34.884Z,32.10
2018-12-31T01:11:34.884Z,31.90
2018-12-31T01:12:35.081Z,31.50
2018-12-31T01:13:34.892Z,32.40
2018-12-31T01:14:35.060Z,30.20
2018-12-31T01:15:34.915Z,29.70
2018-12-31T01:16:34.856Z,30.20
2018-12-31T01:17:34.852Z,28.70
2018-12-31T01:18:34.831Z,29.10
2018-12-31T01:19:34.849Z,28.40
2018-12-31T01:20:34.839Z,28.80
2018-12-31T01:21:34.822Z,29.40
2018-12-31T01:22:35.035Z,29.70
2018-12-31T01:23:34.822Z,29.20
2018-12-31T01:24:34.826Z,28.90
2018-12-31T01:25:35.013Z,29.00
2018-12-31T01:26:34.795Z,30.50
2018-12-31T01:27:34.992Z,28.60
2018-12-31T01:28:34.784Z,29.00
2018-12-31T01:29:34.985Z,28.40
2018-12-31T01:30:34.802Z,29.80
2018-12-31T01:31:34.981Z,28.60
2018-12-31T01:32:34.760Z,30.00
2018-12-31T01:33:34.961Z,29.60
2018-12-31T01:34:34.955Z,30.40
2018-12-31T01:35:34.765Z,30.30
2018-12-31T01:36:34.941Z,28.40
2018-12-31T01:37:34.748Z,28.50
2018-12-31T01:38:34.736Z,31.30
2018-12-31T01:39:34.722Z,30.40
2018-12-31T01:40:34.721Z,29.50
2018-12-31T01:41:34.716Z,29.40
2018-12-31T01:42:34.713Z,30.10
2018-12-31T01:43:34.913Z,30.70
2018-12-31T01:44:34.712Z,30.20
2018-12-31T01:45:34.692Z,30.10
2018-12-31T01:46:34.692Z,31.90
2018-12-31T01:47:34.714Z,30.80
2018-12-31T01:48:34.692Z,27.80
2018-12-31T01:49:34.681Z,28.20
2018-12-31T01:50:34.671Z,29.50
2018-12-31T01:51:34.677Z,29.40
2018-12-31T01:52:34.867Z,30.00
2018-12-31T01:53:34.654Z,29.60
2018-12-31T01:54:34.661Z,29.20
2018-12-31T01:55:34.645Z,29.20
2018-12-31T01:56:34.664Z,30.80
2018-12-31T01:57:34.858Z,30.30
2018-12-31T01:58:34.639Z,29.50
2018-12-31T01:59:34.623Z,28.00
2018-12-31T02:00:34.611Z,27.70
2018-12-31T02:01:34.607Z,25.80
2018-12-31T02:02:34.621Z,26.90
2018-12-31T02:03:34.613Z,28.60
2018-12-31T02:04:34.602Z,28.30
2018-12-31T02:05:34.587Z,28.00
2018-12-31T02:06:34.600Z,28.90
2018-12-31T02:07:34.587Z,28.60
2018-12-31T02:08:34.582Z,28.80
2018-12-31T02:09:36.294Z,27.60
2018-12-31T02:10:34.564Z,29.30
2018-12-31T02:11:34.561Z,29.30
2018-12-31T02:12:34.572Z,28.80
2018-12-31T02:13:34.567Z,28.40
2018-12-31T02:14:34.558Z,29.90
2018-12-31T02:15:34.545Z,29.60
2018-12-31T02:16:34.544Z,29.00
2018-12-31T02:17:34.536Z,28.50
2018-12-31T02:18:34.528Z,30.80
2018-12-31T02:19:34.530Z,30.10
2018-12-31T02:20:34.516Z,30.60
2018-12-31T02:21:34.528Z,32.00
2018-12-31T02:22:34.509Z,32.40
2018-12-31T02:23:34.711Z,34.00
2018-12-31T02:24:34.512Z,33.70
2018-12-31T02:25:34.497Z,34.60
2018-12-31T02:26:34.480Z,34.40
2018-12-31T02:27:34.480Z,33.10
2018-12-31T02:28:34.475Z,33.80
2018-12-31T02:29:34.473Z,33.30
2018-12-31T02:30:34.459Z,34.00
2018-12-31T02:31:34.475Z,32.70
2018-12-31T02:32:34.459Z,31.70
2018-12-31T02:33:34.480Z,33.80
2018-12-31T02:34:34.471Z,31.10
2018-12-31T02:35:34.448Z,31.70
2018-12-31T02:36:34.429Z,29.70
2018-12-31T02:37:34.426Z,32.50
2018-12-31T02:38:34.638Z,31.60
2018-12-31T02:39:34.423Z,32.10
2018-12-31T02:40:34.416Z,31.90
2018-12-31T02:41:34.433Z,32.30
2018-12-31T02:42:34.396Z,31.30
2018-12-31T02:43:34.400Z,31.10
2018-12-31T02:44:34.423Z,32.80
2018-12-31T02:45:34.406Z,33.30
2018-12-31T02:46:34.386Z,30.30
2018-12-31T02:47:34.387Z,34.40
2018-12-31T02:48:34.574Z,37.40
2018-12-31T02:49:34.385Z,34.30
2018-12-31T02:50:34.356Z,30.20
2018-12-31T02:51:34.564Z,31.70
2018-12-31T02:52:34.367Z,30.50
2018-12-31T02:53:34.347Z,32.20
2018-12-31T02:54:34.545Z,31.60
2018-12-31T02:55:34.333Z,31.30
2018-12-31T02:56:34.335Z,31.40
2018-12-31T02:57:34.559Z,34.50
2018-12-31T02:58:34.327Z,38.60
2018-12-31T02:59:34.327Z,37.00
2018-12-31T03:00:34.520Z,32.70
2018-12-31T03:01:34.514Z,31.70
2018-12-31T03:02:34.317Z,33.70
2018-12-31T03:03:34.529Z,31.80
2018-12-31T03:04:34.298Z,31.70
2018-12-31T03:05:34.344Z,34.60
2018-12-31T03:06:34.285Z,33.80
2018-12-31T03:07:34.289Z,34.40
2018-12-31T03:08:34.473Z,33.30
2018-12-31T03:09:34.284Z,34.40
2018-12-31T03:10:34.468Z,34.40
2018-12-31T03:11:34.271Z,34.50
2018-12-31T03:12:34.266Z,34.90
2018-12-31T03:13:34.244Z,35.60
2018-12-31T03:14:34.239Z,35.20
2018-12-31T03:15:34.309Z,34.80
2018-12-31T03:16:34.229Z,35.60
2018-12-31T03:17:34.227Z,34.80
2018-12-31T03:18:34.237Z,35.70
2018-12-31T03:19:34.222Z,35.70
2018-12-31T03:20:34.221Z,36.20
2018-12-31T03:21:34.423Z,36.40
2018-12-31T03:22:34.202Z,36.30
2018-12-31T03:23:34.409Z,36.70
2018-12-31T03:24:34.192Z,35.70
2018-12-31T03:25:34.217Z,37.60
2018-12-31T03:26:34.182Z,37.50
2018-12-31T03:27:34.190Z,35.80
2018-12-31T03:28:34.169Z,36.40
2018-12-31T03:29:34.164Z,34.30
2018-12-31T03:30:34.166Z,34.50
2018-12-31T03:31:34.187Z,35.00
2018-12-31T03:32:34.163Z,34.60
2018-12-31T03:33:34.159Z,35.90
2018-12-31T03:34:34.153Z,35.20
2018-12-31T03:35:34.339Z,35.00
2018-12-31T03:36:34.136Z,35.80
2018-12-31T03:37:34.345Z,35.60
2018-12-31T03:38:34.121Z,35.90
2018-12-31T03:39:34.318Z,36.20
2018-12-31T03:40:34.126Z,36.50
2018-12-31T03:41:34.131Z,35.40
2018-12-31T03:42:34.106Z,34.50
2018-12-31T03:43:34.099Z,36.60
2018-12-31T03:44:34.093Z,34.10
2018-12-31T03:45:34.088Z,32.60
2018-12-31T03:46:34.304Z,35.00
2018-12-31T03:47:34.074Z,34.20
2018-12-31T03:48:34.085Z,35.10
2018-12-31T03:49:34.067Z,31.40
2018-12-31T03:50:34.277Z,33.40
2018-12-31T03:51:34.056Z,34.40
2018-12-31T03:52:34.262Z,34.30
2018-12-31T03:53:34.260Z,32.60
2018-12-31T03:54:34.043Z,35.00
2018-12-31T03:55:34.052Z,34.30
2018-12-31T03:56:34.028Z,33.80
2018-12-31T03:57:34.236Z,34.70
2018-12-31T03:58:34.030Z,34.40
2018-12-31T03:59:34.030Z,34.40
2018-12-31T04:00:34.015Z,32.20
2018-12-31T04:01:34.033Z,32.20
2018-12-31T04:02:34.016Z,32.20
2018-12-31T04:03:34.013Z,34.00
2018-12-31T04:04:33.989Z,34.10
2018-12-31T04:05:34.191Z,34.20
2018-12-31T04:06:33.984Z,35.50
2018-12-31T04:07:34.187Z,35.50
2018-12-31T04:08:33.999Z,34.90
2018-12-31T04:09:35.059Z,35.30
2018-12-31T04:10:33.960Z,34.40
2018-12-31T04:11:33.967Z,36.90
2018-12-31T04:12:33.955Z,34.00
2018-12-31T04:13:34.152Z,33.80
2018-12-31T04:14:33.942Z,34.30
2018-12-31T04:15:33.946Z,35.10
2018-12-31T04:16:34.141Z,34.80
2018-12-31T04:17:34.149Z,33.90
2018-12-31T04:18:34.141Z,34.50
2018-12-31T04:19:33.923Z,33.60
2018-12-31T04:20:34.121Z,35.40
2018-12-31T04:21:34.108Z,33.60
2018-12-31T04:22:33.908Z,33.90
2018-12-31T04:23:33.903Z,35.00
2018-12-31T04:24:34.030Z,33.90
2018-12-31T04:25:34.103Z,35.60
2018-12-31T04:26:33.883Z,34.30
2018-12-31T04:27:33.875Z,34.70
2018-12-31T04:28:33.885Z,33.70
2018-12-31T04:29:33.886Z,33.70
2018-12-31T04:30:33.864Z,35.30
2018-12-31T04:31:33.857Z,35.70
2018-12-31T04:32:33.855Z,36.80
2018-12-31T04:33:33.858Z,35.30
2018-12-31T04:34:33.843Z,35.00
2018-12-31T04:35:33.836Z,32.70
2018-12-31T04:36:33.833Z,33.90
2018-12-31T04:37:33.841Z,35.00
2018-12-31T04:38:34.026Z,35.90
2018-12-31T04:39:34.022Z,35.00
2018-12-31T04:40:34.031Z,37.00
2018-12-31T04:41:33.826Z,36.80
2018-12-31T04:42:33.818Z,35.50
2018-12-31T04:43:33.803Z,35.40
2018-12-31T04:44:34.000Z,34.40
2018-12-31T04:45:33.803Z,35.50
2018-12-31T04:46:33.799Z,36.40
2018-12-31T04:47:33.783Z,36.50
2018-12-31T04:48:33.782Z,35.70
2018-12-31T04:49:33.769Z,34.50
2018-12-31T04:50:33.981Z,36.10
2018-12-31T04:51:33.763Z,36.10
2018-12-31T04:52:33.756Z,36.50
2018-12-31T04:53:33.958Z,35.30
2018-12-31T04:54:33.954Z,36.60
2018-12-31T04:55:33.956Z,36.30
2018-12-31T04:56:33.945Z,36.10
2018-12-31T04:57:33.735Z,38.70
2018-12-31T04:58:33.743Z,35.90
2018-12-31T04:59:33.719Z,35.00
2018-12-31T05:00:33.719Z,35.10
2018-12-31T05:01:33.722Z,37.20
2018-12-31T05:02:33.719Z,38.40
2018-12-31T05:03:33.913Z,36.90
2018-12-31T05:04:33.700Z,37.40
2018-12-31T05:05:33.692Z,36.50
2018-12-31T05:06:33.889Z,39.60
2018-12-31T05:07:33.909Z,39.30
2018-12-31T05:08:33.672Z,34.30
2018-12-31T05:09:33.668Z,36.30
2018-12-31T05:10:33.663Z,36.70
2018-12-31T05:11:33.666Z,35.00
2018-12-31T05:12:33.674Z,36.50
2018-12-31T05:13:33.873Z,35.70
2018-12-31T05:14:33.639Z,36.20
2018-12-31T05:15:33.650Z,34.90
2018-12-31T05:16:33.842Z,39.20
2018-12-31T05:17:33.642Z,36.60
2018-12-31T05:18:33.657Z,33.90
2018-12-31T05:19:33.635Z,35.10
2018-12-31T05:20:33.622Z,36.20
2018-12-31T05:21:33.613Z,35.10
2018-12-31T05:22:33.606Z,36.10
2018-12-31T05:23:33.617Z,36.10
2018-12-31T05:24:33.613Z,36.70
2018-12-31T05:25:33.600Z,38.00
2018-12-31T05:26:33.583Z,36.20
2018-12-31T05:27:33.581Z,34.40
2018-12-31T05:28:33.583Z,36.60
2018-12-31T05:29:33.577Z,37.80
2018-12-31T05:30:33.569Z,37.40
2018-12-31T05:31:33.561Z,40.40
2018-12-31T05:32:33.573Z,40.50
2018-12-31T05:33:33.552Z,38.40
2018-12-31T05:34:33.748Z,39.70
2018-12-31T05:35:33.544Z,38.10
2018-12-31T05:36:33.537Z,38.00
2018-12-31T05:37:33.541Z,39.40
2018-12-31T05:38:33.530Z,39.90
2018-12-31T05:39:33.744Z,38.00
2018-12-31T05:40:33.738Z,40.00
2018-12-31T05:41:33.514Z,41.00
2018-12-31T05:42:33.508Z,42.20
2018-12-31T05:43:33.509Z,39.90
2018-12-31T05:44:33.702Z,39.80
2018-12-31T05:45:33.701Z,39.10
2018-12-31T05:46:33.490Z,39.40
2018-12-31T05:47:33.496Z,39.00
2018-12-31T05:48:33.477Z,39.90
2018-12-31T05:49:33.683Z,40.10
2018-12-31T05:50:33.680Z,38.60
2018-12-31T05:51:33.468Z,40.20
2018-12-31T05:52:33.461Z,39.90
2018-12-31T05:53:33.658Z,41.90
2018-12-31T05:54:33.469Z,41.80
2018-12-31T05:55:33.446Z,40.80
2018-12-31T05:56:33.451Z,42.10
2018-12-31T05:57:33.442Z,43.70
2018-12-31T05:58:33.631Z,45.30
2018-12-31T05:59:33.425Z,45.90
2018-12-31T06:00:33.427Z,46.40
2018-12-31T06:01:33.413Z,47.90
2018-12-31T06:02:33.407Z,45.40
2018-12-31T06:03:33.409Z,47.70
2018-12-31T06:04:33.406Z,46.10
2018-12-31T06:05:33.392Z,46.70
2018-12-31T06:06:33.402Z,48.80
2018-12-31T06:07:33.403Z,48.10
2018-12-31T06:08:33.604Z,48.60
2018-12-31T06:09:33.376Z,47.90
2018-12-31T06:10:33.371Z,46.70
2018-12-31T06:11:33.363Z,47.90
2018-12-31T06:12:33.363Z,47.40
2018-12-31T06:13:33.359Z,48.20
2018-12-31T06:14:33.362Z,48.70
2018-12-31T06:15:33.344Z,49.30
2018-12-31T06:16:33.357Z,50.90
2018-12-31T06:17:33.351Z,50.10
2018-12-31T06:18:33.329Z,50.30
2018-12-31T06:19:33.335Z,48.70
2018-12-31T06:20:33.343Z,50.50
2018-12-31T06:21:33.519Z,49.50
2018-12-31T06:22:33.323Z,49.50
2018-12-31T06:23:33.306Z,48.50
2018-12-31T06:24:33.529Z,47.70
2018-12-31T06:25:33.496Z,48.30
2018-12-31T06:26:33.293Z,47.30
2018-12-31T06:27:33.499Z,48.80
2018-12-31T06:28:33.297Z,49.40
2018-12-31T06:29:33.283Z,49.70
2018-12-31T06:30:33.285Z,49.00
2018-12-31T06:31:33.264Z,48.60
2018-12-31T06:32:33.272Z,50.60
2018-12-31T06:33:33.255Z,51.00
2018-12-31T06:34:33.255Z,51.20
2018-12-31T06:35:33.247Z,51.40
2018-12-31T06:36:33.247Z,50.80
2018-12-31T06:37:33.232Z,50.80
2018-12-31T06:38:33.243Z,51.20
2018-12-31T06:39:33.221Z,52.00
2018-12-31T06:40:33.219Z,51.70
2018-12-31T06:41:33.215Z,52.30
2018-12-31T06:42:33.211Z,53.20
2018-12-31T06:43:33.201Z,50.20
2018-12-31T06:44:33.219Z,51.30
2018-12-31T06:45:33.194Z,51.50
2018-12-31T06:46:33.202Z,51.10
2018-12-31T06:47:33.182Z,51.90
2018-12-31T06:48:33.189Z,50.30
2018-12-31T06:49:33.191Z,53.60
2018-12-31T06:50:33.191Z,51.60
2018-12-31T06:51:33.164Z,52.20
2018-12-31T06:52:33.370Z,52.20
2018-12-31T06:53:33.162Z,53.00
2018-12-31T06:54:33.370Z,53.60
2018-12-31T06:55:33.149Z,52.20
2018-12-31T06:56:33.159Z,49.40
2018-12-31T06:57:33.134Z,51.00
2018-12-31T06:58:33.328Z,51.90
2018-12-31T06:59:33.123Z,50.30
2018-12-31T07:00:33.115Z,50.90
2018-12-31T07:01:33.320Z,50.70
2018-12-31T07:02:33.108Z,49.30
2018-12-31T07:03:33.110Z,48.80
2018-12-31T07:04:33.101Z,50.70
2018-12-31T07:05:33.093Z,51.40
2018-12-31T07:06:33.288Z,52.40
2018-12-31T07:07:33.081Z,49.80
2018-12-31T07:08:33.080Z,48.90
2018-12-31T07:09:33.071Z,49.60
2018-12-31T07:10:33.063Z,49.80
2018-12-31T07:11:33.267Z,50.80
2018-12-31T07:12:33.064Z,53.30
2018-12-31T07:13:33.253Z,50.80
2018-12-31T07:14:33.036Z,51.20
2018-12-31T07:15:33.033Z,51.40
2018-12-31T07:16:33.037Z,50.70
2018-12-31T07:17:33.232Z,50.40
2018-12-31T07:18:33.037Z,50.00
2018-12-31T07:19:33.219Z,51.40
2018-12-31T07:20:33.018Z,51.80
2018-12-31T07:22:33.001Z,51.60
2018-12-31T07:23:33.003Z,51.80
2018-12-31T07:24:32.994Z,50.50
2018-12-31T07:25:32.984Z,51.60
2018-12-31T07:26:32.978Z,52.10
2018-12-31T07:27:33.179Z,50.50
2018-12-31T07:28:32.967Z,53.80
2018-12-31T07:29:32.971Z,53.80
2018-12-31T07:30:32.961Z,53.10
2018-12-31T07:31:32.964Z,53.80
2018-12-31T07:32:33.243Z,54.00
2018-12-31T07:33:32.955Z,52.80
2018-12-31T07:34:32.951Z,52.60
2018-12-31T07:35:32.947Z,51.70
2018-12-31T07:36:32.953Z,51.20
2018-12-31T07:37:32.928Z,52.40
2018-12-31T07:38:32.920Z,52.10
2018-12-31T07:39:32.914Z,50.60
2018-12-31T07:40:32.905Z,52.10
2018-12-31T07:41:32.905Z,51.50
2018-12-31T07:42:32.915Z,53.70
2018-12-31T07:43:32.910Z,55.30
2018-12-31T07:44:32.909Z,52.30
2018-12-31T07:45:33.090Z,53.00
2018-12-31T07:46:32.896Z,53.80
2018-12-31T07:47:32.884Z,54.50
2018-12-31T07:48:32.886Z,54.10
2018-12-31T07:49:32.884Z,55.20
2018-12-31T07:50:32.884Z,52.50
2018-12-31T07:51:32.878Z,53.10
2018-12-31T07:52:32.860Z,54.70
2018-12-31T07:53:32.839Z,52.60
2018-12-31T07:54:32.842Z,54.40
2018-12-31T07:55:32.843Z,53.70
2018-12-31T07:56:32.841Z,54.10
2018-12-31T07:57:32.831Z,55.10
2018-12-31T07:58:32.823Z,52.70
2018-12-31T07:59:32.833Z,54.60
2018-12-31T08:00:32.807Z,54.20
2018-12-31T08:01:32.821Z,55.00
2018-12-31T08:02:32.805Z,53.50
2018-12-31T08:03:32.796Z,53.30
2018-12-31T08:04:32.814Z,54.10
2018-12-31T08:05:32.789Z,51.50
2018-12-31T08:06:32.803Z,52.50
2018-12-31T08:07:32.796Z,53.90
2018-12-31T08:08:32.777Z,53.00
2018-12-31T08:09:32.779Z,55.10
2018-12-31T08:10:32.757Z,52.90
2018-12-31T08:11:32.767Z,53.00
2018-12-31T08:12:32.744Z,54.00
2018-12-31T08:13:32.764Z,53.90
2018-12-31T08:14:32.748Z,51.20
2018-12-31T08:15:32.734Z,54.10
2018-12-31T08:16:32.939Z,53.70
2018-12-31T08:17:32.723Z,53.60
2018-12-31T08:18:32.732Z,54.00
2018-12-31T08:19:32.712Z,54.80
2018-12-31T08:20:32.715Z,54.80
2018-12-31T08:21:32.704Z,53.90
2018-12-31T08:22:32.710Z,54.90
2018-12-31T08:23:32.700Z,53.10
2018-12-31T08:24:32.696Z,52.70
2018-12-31T08:25:32.880Z,53.90
2018-12-31T08:26:32.879Z,54.20
2018-12-31T08:27:32.670Z,53.20
2018-12-31T08:28:32.666Z,55.80
2018-12-31T08:29:32.663Z,52.50
2018-12-31T08:30:32.676Z,53.40
2018-12-31T08:31:32.667Z,52.90
2018-12-31T08:32:32.638Z,52.60
2018-12-31T08:33:32.645Z,54.50
2018-12-31T08:34:32.636Z,52.30
2018-12-31T08:35:32.655Z,52.40
2018-12-31T08:36:32.660Z,53.60
2018-12-31T08:37:32.640Z,54.00
2018-12-31T08:38:32.626Z,52.30
2018-12-31T08:39:32.819Z,52.80
2018-12-31T08:40:32.623Z,55.20
2018-12-31T08:41:32.613Z,55.40
2018-12-31T08:42:32.592Z,52.70
2018-12-31T08:43:32.594Z,53.90
2018-12-31T08:44:32.786Z,55.70
2018-12-31T08:45:32.574Z,53.60
2018-12-31T08:46:32.586Z,55.50
2018-12-31T08:47:32.565Z,55.70
2018-12-31T08:48:32.557Z,54.30
2018-12-31T08:49:32.556Z,55.50
2018-12-31T08:50:32.754Z,53.90
2018-12-31T08:51:32.556Z,53.30
2018-12-31T08:52:32.557Z,54.80
2018-12-31T08:53:32.541Z,55.20
2018-12-31T08:54:32.526Z,53.40
2018-12-31T08:55:32.520Z,54.50
2018-12-31T08:56:32.753Z,54.60
2018-12-31T08:57:32.557Z,54.00
2018-12-31T08:58:32.514Z,55.80
2018-12-31T08:59:32.532Z,55.10
2018-12-31T09:00:32.522Z,54.80
2018-12-31T09:01:32.507Z,55.00
2018-12-31T09:02:32.506Z,54.60
2018-12-31T09:03:32.509Z,54.90
2018-12-31T09:04:32.493Z,56.70
2018-12-31T09:05:32.491Z,55.30
2018-12-31T09:06:32.504Z,56.50
2018-12-31T09:07:32.464Z,56.90
2018-12-31T09:08:32.481Z,59.10
2018-12-31T09:09:32.455Z,57.20
2018-12-31T09:10:32.449Z,57.50
2018-12-31T09:11:32.454Z,56.00
2018-12-31T09:12:32.449Z,56.20
2018-12-31T09:13:32.447Z,57.10
2018-12-31T09:14:32.429Z,58.30
2018-12-31T09:15:32.416Z,58.30
2018-12-31T09:16:32.433Z,60.80
2018-12-31T09:17:32.475Z,58.10
2018-12-31T09:18:32.407Z,57.40
2018-12-31T09:19:32.399Z,57.50
2018-12-31T09:20:32.407Z,60.20
2018-12-31T09:21:32.420Z,60.50
2018-12-31T09:22:32.385Z,62.30
2018-12-31T09:23:32.380Z,60.60
2018-12-31T09:24:32.383Z,60.90
2018-12-31T09:25:32.380Z,63.80
2018-12-31T09:26:32.374Z,62.70
2018-12-31T09:27:32.360Z,65.40
2018-12-31T09:28:32.350Z,62.90
2018-12-31T09:29:32.554Z,61.80
2018-12-31T09:30:32.540Z,62.30
2018-12-31T09:31:32.335Z,64.50
2018-12-31T09:32:32.333Z,68.40
2018-12-31T09:33:32.321Z,69.30
2018-12-31T09:34:32.314Z,70.80
2018-12-31T09:35:32.519Z,69.10
2018-12-31T09:36:32.317Z,67.20
2018-12-31T09:37:32.318Z,65.90
2018-12-31T09:38:32.309Z,63.40
2018-12-31T09:39:32.293Z,66.00
2018-12-31T09:40:32.287Z,63.80
2018-12-31T09:41:32.306Z,67.40
2018-12-31T09:42:32.489Z,72.50
2018-12-31T09:43:32.274Z,74.40
2018-12-31T09:44:32.281Z,70.10
2018-12-31T09:45:32.265Z,66.90
2018-12-31T09:46:32.255Z,66.60
2018-12-31T09:47:33.866Z,71.30
2018-12-31T09:48:32.245Z,77.30
2018-12-31T09:49:32.261Z,72.40
2018-12-31T09:50:32.242Z,70.70
2018-12-31T09:51:32.232Z,72.20
2018-12-31T09:52:32.223Z,74.20
2018-12-31T09:53:32.221Z,76.70
2018-12-31T09:54:32.216Z,76.50
2018-12-31T09:55:32.214Z,74.50
2018-12-31T09:56:32.208Z,76.30
2018-12-31T09:57:32.226Z,77.10
2018-12-31T09:58:32.192Z,79.40
2018-12-31T09:59:32.187Z,76.70
2018-12-31T10:00:32.197Z,76.60
2018-12-31T10:01:32.194Z,73.90
2018-12-31T10:02:32.172Z,77.10
2018-12-31T10:03:32.196Z,76.50
2018-12-31T10:04:32.160Z,75.60
2018-12-31T10:05:32.156Z,73.30
2018-12-31T10:06:32.154Z,74.10
2018-12-31T10:07:32.154Z,69.30
2018-12-31T10:08:32.156Z,70.50
2018-12-31T10:09:32.149Z,74.10
2018-12-31T10:10:32.133Z,70.90
2018-12-31T10:11:32.143Z,72.30
2018-12-31T10:12:32.136Z,69.60
2018-12-31T10:13:32.129Z,70.80
2018-12-31T10:14:32.112Z,69.50
2018-12-31T10:15:32.112Z,71.10
2018-12-31T10:16:32.116Z,71.20
2018-12-31T10:17:32.092Z,71.70
2018-12-31T10:18:32.124Z,72.50
2018-12-31T10:19:32.081Z,72.40
2018-12-31T10:20:32.088Z,70.60
2018-12-31T10:21:32.083Z,68.20
2018-12-31T10:22:32.088Z,70.10
2018-12-31T10:23:32.061Z,70.50
2018-12-31T10:24:32.086Z,71.90
2018-12-31T10:25:32.059Z,67.30
2018-12-31T10:26:32.059Z,67.50
2018-12-31T10:27:32.059Z,68.10
2018-12-31T10:28:32.040Z,68.40
2018-12-31T10:29:36.019Z,67.60
2018-12-31T10:30:32.038Z,66.40
2018-12-31T10:31:32.047Z,66.70
2018-12-31T10:32:32.030Z,66.00
2018-12-31T10:33:32.013Z,67.20
2018-12-31T10:34:32.014Z,64.60
2018-12-31T10:35:32.034Z,66.90
2018-12-31T10:36:32.018Z,64.90
2018-12-31T10:37:32.006Z,65.90
2018-12-31T10:38:31.999Z,64.10
2018-12-31T10:39:32.006Z,64.80
2018-12-31T10:40:31.990Z,63.90
2018-12-31T10:41:31.979Z,63.10
2018-12-31T10:42:31.989Z,63.70
2018-12-31T10:43:31.978Z,61.80
2018-12-31T10:44:32.028Z,62.30
2018-12-31T10:45:31.983Z,61.40
2018-12-31T10:46:31.958Z,60.30
2018-12-31T10:47:31.945Z,60.50
2018-12-31T10:48:31.958Z,60.60
2018-12-31T10:49:32.150Z,59.90
2018-12-31T10:50:31.947Z,59.90
2018-12-31T10:51:31.928Z,60.90
2018-12-31T10:52:32.123Z,56.40
2018-12-31T10:53:31.921Z,56.60
2018-12-31T10:54:32.110Z,56.00
2018-12-31T10:55:31.908Z,56.50
2018-12-31T10:56:31.904Z,57.90
2018-12-31T10:57:31.898Z,54.80
2018-12-31T10:58:32.089Z,56.10
2018-12-31T10:59:31.894Z,54.90
2018-12-31T11:00:31.885Z,53.60
2018-12-31T11:01:31.876Z,53.10
2018-12-31T11:02:31.870Z,53.10
2018-12-31T11:03:31.859Z,52.70
2018-12-31T11:04:32.068Z,54.10
2018-12-31T11:05:31.852Z,50.80
2018-12-31T11:06:31.863Z,51.80
2018-12-31T11:07:31.869Z,53.10
2018-12-31T11:08:31.857Z,51.40
2018-12-31T11:09:31.863Z,52.50
2018-12-31T11:10:31.856Z,50.40
2018-12-31T11:11:31.825Z,51.10
2018-12-31T11:12:31.831Z,52.10
2018-12-31T11:13:31.811Z,52.90
2018-12-31T11:14:31.832Z,53.10
2018-12-31T11:15:31.816Z,51.20
2018-12-31T11:16:31.799Z,51.30
2018-12-31T11:17:31.804Z,53.70
2018-12-31T11:18:31.813Z,51.50
2018-12-31T11:19:33.442Z,51.50
2018-12-31T11:20:31.796Z,52.40
2018-12-31T11:21:31.799Z,52.10
2018-12-31T11:22:31.784Z,51.80
2018-12-31T11:23:31.763Z,52.40
2018-12-31T11:24:31.770Z,51.20
2018-12-31T11:25:31.768Z,51.00
2018-12-31T11:26:31.748Z,51.40
2018-12-31T11:27:31.744Z,51.80
2018-12-31T11:28:31.765Z,51.60
2018-12-31T11:29:31.742Z,49.70
2018-12-31T11:30:31.927Z,51.50
2018-12-31T11:31:31.732Z,51.60
2018-12-31T11:32:31.724Z,51.00
2018-12-31T11:33:31.932Z,50.90
2018-12-31T11:34:31.722Z,50.60
2018-12-31T11:35:31.904Z,51.20
2018-12-31T11:36:32.520Z,50.80
2018-12-31T11:37:34.815Z,52.60
2018-12-31T11:38:31.693Z,49.70
2018-12-31T11:39:31.692Z,51.20
2018-12-31T11:40:31.679Z,48.60
2018-12-31T11:41:31.678Z,48.60
2018-12-31T11:42:31.677Z,48.40
2018-12-31T11:43:31.662Z,46.80
2018-12-31T11:44:31.866Z,48.50
2018-12-31T11:45:31.668Z,46.50
2018-12-31T11:46:31.647Z,46.50
2018-12-31T11:47:31.647Z,47.10
2018-12-31T11:48:31.645Z,46.50
2018-12-31T11:49:31.645Z,46.30
2018-12-31T11:50:31.631Z,45.70
2018-12-31T11:51:31.621Z,47.10
2018-12-31T11:52:31.623Z,43.90
2018-12-31T11:53:31.623Z,45.00
2018-12-31T11:54:31.644Z,44.60
2018-12-31T11:55:31.623Z,44.40
2018-12-31T11:56:31.605Z,44.20
2018-12-31T11:57:31.599Z,44.30
2018-12-31T11:58:31.604Z,44.90
2018-12-31T11:59:31.586Z,42.90
2018-12-31T12:00:31.776Z,43.60
2018-12-31T12:01:31.581Z,43.50
2018-12-31T12:02:31.562Z,43.30
2018-12-31T12:03:31.568Z,41.50
2018-12-31T12:04:31.563Z,42.30
2018-12-31T12:05:31.551Z,41.80
2018-12-31T12:06:31.556Z,40.60
2018-12-31T12:07:31.552Z,40.00
2018-12-31T12:08:31.541Z,39.70
2018-12-31T12:09:31.544Z,39.70
2018-12-31T12:10:31.547Z,39.10
2018-12-31T12:11:31.528Z,40.10
2018-12-31T12:12:31.520Z,41.00
2018-12-31T12:13:31.521Z,41.00
2018-12-31T12:14:31.523Z,39.00
2018-12-31T12:15:31.510Z,38.70
2018-12-31T12:16:31.499Z,39.00
2018-12-31T12:17:31.576Z,38.70
2018-12-31T12:18:31.491Z,39.70
2018-12-31T12:19:31.498Z,38.00
2018-12-31T12:20:31.476Z,38.60
2018-12-31T12:21:31.475Z,38.50
2018-12-31T12:22:31.472Z,38.00
2018-12-31T12:23:31.468Z,40.90
2018-12-31T12:24:31.470Z,39.80
2018-12-31T12:25:31.455Z,39.80
2018-12-31T12:26:31.448Z,38.70
2018-12-31T12:27:31.443Z,39.10
2018-12-31T12:28:31.439Z,39.10
2018-12-31T12:29:31.444Z,37.80
2018-12-31T12:30:31.439Z,38.10
2018-12-31T12:31:31.627Z,41.10
2018-12-31T12:32:31.419Z,39.70
2018-12-31T12:33:31.423Z,41.90
2018-12-31T12:34:31.410Z,40.70
2018-12-31T12:35:31.403Z,42.60
2018-12-31T12:36:31.399Z,40.90
2018-12-31T12:37:31.413Z,40.80
2018-12-31T12:38:31.390Z,43.20
2018-12-31T12:39:31.385Z,40.70
2018-12-31T12:40:31.389Z,40.50
2018-12-31T12:41:31.379Z,41.00
2018-12-31T12:42:31.581Z,41.90
2018-12-31T12:43:31.366Z,40.80
2018-12-31T12:44:31.358Z,40.10
2018-12-31T12:45:31.367Z,41.10
2018-12-31T12:46:31.368Z,40.00
2018-12-31T12:47:31.549Z,39.20
2018-12-31T12:48:31.347Z,40.60
2018-12-31T12:49:31.398Z,38.90
2018-12-31T12:50:31.335Z,39.10
2018-12-31T12:51:31.332Z,39.10
2018-12-31T12:52:31.330Z,40.10
2018-12-31T12:53:31.325Z,40.10